Terminal Aerodrome Forecast
Issued by NWS Melbourne, FL

Home | Current Version | Previous Version | Text Only | Print | Product List | Glossary On
Versions: 1 2 3 4 5 6 7 8 9 10 11 12 13 14 15 16 17 18 19 20
000
FTUS42 KMLB 242340
TAFDAB
TAF
KDAB 242340Z 2500/2524 03011KT P6SM SCT020 SCT030 SCT250
      TEMPO 2500/2501 BKN030
     FM250300 02007KT P6SM FEW015 SCT025 SCT250
     FM250900 34006KT P6SM VCSH SCT015 BKN040
     FM251400 02009KT P6SM SCT025 BKN070=

USA.gov is the U.S. government's official web portal to all federal, state and local government web resources and services.